createdAt,value
2023-11-12T00:01:50.314Z,19.97
2023-11-12T00:04:20.600Z,25.00
2023-11-12T00:06:48.879Z,25.83
2023-11-12T00:09:17.275Z,28.33
2023-11-12T00:11:46.185Z,26.10
2023-11-12T00:14:14.500Z,28.83
2023-11-12T00:16:44.482Z,28.43
2023-11-12T00:19:12.698Z,28.97
2023-11-12T00:21:42.806Z,29.97
2023-11-12T00:24:12.749Z,27.20
2023-11-12T00:26:41.098Z,31.70
2023-11-12T00:29:09.293Z,26.07
2023-11-12T00:31:37.490Z,34.43
2023-11-12T00:34:05.691Z,34.03
2023-11-12T00:36:33.873Z,29.10
2023-11-12T00:39:03.390Z,34.10
2023-11-12T00:41:31.501Z,33.60
2023-11-12T00:43:59.714Z,31.57
2023-11-12T00:46:28.190Z,25.13
2023-11-12T00:48:57.223Z,34.20
2023-11-12T00:51:25.673Z,29.20
2023-11-12T00:53:53.847Z,35.67
2023-11-12T00:56:23.844Z,29.77
2023-11-12T00:58:52.109Z,27.23
2023-11-12T01:01:20.888Z,31.47
2023-11-12T01:03:50.228Z,31.47
2023-11-12T01:06:18.720Z,31.23
2023-11-12T01:08:47.069Z,32.13
2023-11-12T01:11:15.486Z,32.40
2023-11-12T01:13:45.162Z,32.73
2023-11-12T01:16:13.544Z,32.10
2023-11-12T01:18:43.223Z,35.33
2023-11-12T01:21:11.800Z,29.50
2023-11-12T01:23:40.374Z,31.27
2023-11-12T01:26:09.047Z,28.13
2023-11-12T01:28:37.234Z,34.70
2023-11-12T01:31:06.945Z,29.97
2023-11-12T01:33:36.147Z,35.40
2023-11-12T01:36:04.613Z,30.47
2023-11-12T01:38:33.018Z,35.83
2023-11-12T01:41:04.503Z,40.87
2023-11-12T01:43:33.043Z,49.37
2023-11-12T01:46:03.218Z,41.60
2023-11-12T01:48:33.236Z,41.67
2023-11-12T01:51:05.323Z,38.63
2023-11-12T01:53:34.859Z,41.77
2023-11-12T01:56:03.498Z,35.83
2023-11-12T01:58:32.767Z,33.97
2023-11-12T02:01:02.380Z,35.43
2023-11-12T02:03:32.331Z,35.17
2023-11-12T02:06:00.589Z,37.10
2023-11-12T02:08:28.811Z,38.40
2023-11-12T02:10:57.251Z,39.27
2023-11-12T02:13:25.534Z,39.57
2023-11-12T02:15:54.452Z,39.93
2023-11-12T02:18:22.586Z,41.70
2023-11-12T02:20:52.677Z,37.20
2023-11-12T02:23:21.076Z,37.97
2023-11-12T02:25:51.029Z,44.17
2023-11-12T02:28:20.947Z,37.77
2023-11-12T02:30:49.271Z,39.50
2023-11-12T02:33:18.128Z,43.23
2023-11-12T02:35:47.934Z,44.40
2023-11-12T02:38:16.057Z,49.23
2023-11-12T02:40:47.177Z,43.53
2023-11-12T02:43:17.505Z,46.80
2023-11-12T02:45:46.245Z,54.57
2023-11-12T02:48:14.554Z,54.77
2023-11-12T02:50:43.682Z,54.23
2023-11-12T02:53:13.186Z,73.67
2023-11-12T02:55:41.983Z,79.70
2023-11-12T02:58:11.353Z,82.60
2023-11-12T03:00:40.964Z,114.73
2023-11-12T03:03:09.333Z,67.10
2023-11-12T03:05:37.537Z,114.13
2023-11-12T03:08:06.197Z,111.50
2023-11-12T03:10:34.676Z,135.70
2023-11-12T03:13:02.883Z,112.77
2023-11-12T03:15:31.169Z,88.23
2023-11-12T03:18:00.815Z,128.27
2023-11-12T03:20:29.039Z,100.77
2023-11-12T03:22:57.842Z,165.30
2023-11-12T03:25:26.169Z,139.60
2023-11-12T03:27:54.430Z,175.00
2023-11-12T03:30:22.722Z,152.60
2023-11-12T03:32:53.502Z,134.87
2023-11-12T03:35:23.297Z,131.30
2023-11-12T03:37:51.484Z,83.93
2023-11-12T03:40:19.751Z,160.93
2023-11-12T03:42:47.986Z,77.67
2023-11-12T03:45:16.532Z,106.97
2023-11-12T03:47:44.823Z,79.03
2023-11-12T03:50:13.246Z,122.43
2023-11-12T03:52:42.765Z,112.30
2023-11-12T03:55:11.501Z,116.43
2023-11-12T03:57:39.755Z,140.87
2023-11-12T04:00:09.137Z,69.23
2023-11-12T04:02:37.380Z,95.97
2023-11-12T04:05:06.140Z,81.27
2023-11-12T04:07:34.424Z,127.00
2023-11-12T04:10:06.494Z,95.87
2023-11-12T04:12:34.900Z,105.13
2023-11-12T04:15:04.282Z,75.03
2023-11-12T04:17:33.562Z,63.20
2023-11-12T04:20:01.988Z,57.13
2023-11-12T04:22:30.147Z,66.37
2023-11-12T04:24:59.357Z,52.27
2023-11-12T04:27:28.917Z,42.23
2023-11-12T04:29:57.329Z,47.40
2023-11-12T04:32:25.551Z,44.40
2023-11-12T04:34:53.712Z,51.30
2023-11-12T04:37:21.841Z,51.77
2023-11-12T04:39:50.053Z,58.77
2023-11-12T04:42:18.953Z,50.60
2023-11-12T04:44:48.566Z,54.73
2023-11-12T04:47:16.725Z,51.77
2023-11-12T04:49:44.840Z,30.93
2023-11-12T04:52:13.034Z,43.13
2023-11-12T04:54:41.256Z,45.63
2023-11-12T04:57:09.886Z,44.93
2023-11-12T04:59:42.138Z,44.43
2023-11-12T05:02:12.186Z,48.57
2023-11-12T05:04:40.590Z,44.23
2023-11-12T05:07:09.131Z,46.47
2023-11-12T05:09:38.007Z,31.87
2023-11-12T05:12:07.051Z,54.97
2023-11-12T05:14:35.185Z,38.87
2023-11-12T05:17:04.189Z,42.37
2023-11-12T05:19:33.731Z,44.83
2023-11-12T05:22:01.908Z,58.47
2023-11-12T05:24:30.102Z,45.60
2023-11-12T05:26:58.311Z,41.53
2023-11-12T05:29:26.473Z,34.90
2023-11-12T05:31:54.621Z,27.90
2023-11-12T05:34:22.767Z,36.57
2023-11-12T05:36:52.269Z,79.87
2023-11-12T05:39:21.015Z,42.00
2023-11-12T05:41:49.228Z,36.63
2023-11-12T05:44:17.425Z,44.17
2023-11-12T05:46:45.590Z,57.23
2023-11-12T05:49:13.843Z,33.90
2023-11-12T05:51:42.165Z,38.10
2023-11-12T05:54:11.804Z,33.63
2023-11-12T05:56:40.343Z,44.90
2023-11-12T05:59:08.693Z,47.47
2023-11-12T06:01:36.853Z,49.30
2023-11-12T06:04:05.551Z,48.43
2023-11-12T06:06:33.856Z,39.70
2023-11-12T06:09:02.280Z,40.87
2023-11-12T06:11:31.865Z,43.43
2023-11-12T06:14:00.072Z,58.20
2023-11-12T06:16:28.261Z,52.23
2023-11-12T06:18:56.534Z,80.27
2023-11-12T06:21:24.790Z,75.40
2023-11-12T06:23:52.998Z,72.97
2023-11-12T06:26:22.215Z,69.97
2023-11-12T06:28:52.240Z,77.07
2023-11-12T06:31:20.375Z,60.50
2023-11-12T06:33:48.612Z,81.83
2023-11-12T06:36:17.959Z,85.70
2023-11-12T06:38:46.329Z,75.87
2023-11-12T06:41:14.634Z,70.90
2023-11-12T06:43:42.794Z,104.20
2023-11-12T06:46:12.311Z,73.37
2023-11-12T06:48:41.013Z,88.50
2023-11-12T06:51:09.528Z,93.13
2023-11-12T06:53:38.763Z,113.80
2023-11-12T06:56:08.138Z,105.07
2023-11-12T06:58:36.702Z,104.67
2023-11-12T07:01:05.415Z,97.07
2023-11-12T07:03:37.601Z,123.67
2023-11-12T07:06:08.107Z,99.90
2023-11-12T07:08:36.683Z,103.50
2023-11-12T07:11:05.110Z,81.80
2023-11-12T07:13:33.316Z,97.77
2023-11-12T07:16:02.149Z,95.63
2023-11-12T07:21:01.121Z,98.80
2023-11-12T07:23:29.299Z,89.40
2023-11-12T07:25:57.495Z,83.27
2023-11-12T07:28:25.682Z,90.57
2023-11-12T07:30:53.797Z,94.13
2023-11-12T07:33:22.896Z,81.63
2023-11-12T07:35:51.660Z,79.40
2023-11-12T07:38:21.987Z,90.97
2023-11-12T07:40:50.135Z,87.33
2023-11-12T07:43:18.268Z,92.80
2023-11-12T07:45:46.962Z,84.80
2023-11-12T07:48:15.469Z,79.37
2023-11-12T07:50:43.698Z,84.37
2023-11-12T07:53:12.006Z,84.70
2023-11-12T07:55:42.447Z,75.07
2023-11-12T07:58:10.618Z,78.53
2023-11-12T08:00:38.953Z,78.13
2023-11-12T08:03:08.477Z,73.50
2023-11-12T08:05:39.179Z,74.93
2023-11-12T08:08:07.380Z,68.97
2023-11-12T08:10:38.434Z,66.53
2023-11-12T08:13:08.263Z,66.80
2023-11-12T08:15:36.540Z,68.50
2023-11-12T08:18:06.539Z,62.80
2023-11-12T08:20:35.812Z,63.13
2023-11-12T08:23:04.254Z,53.40
2023-11-12T08:25:32.495Z,53.73
2023-11-12T08:28:00.815Z,56.50
2023-11-12T08:30:30.524Z,53.27
2023-11-12T08:32:58.748Z,50.17
2023-11-12T08:35:27.466Z,46.40
2023-11-12T08:37:55.768Z,53.67
2023-11-12T08:40:24.168Z,43.10
2023-11-12T08:42:52.394Z,40.10
2023-11-12T08:45:21.822Z,44.53
2023-11-12T08:47:51.459Z,46.57
2023-11-12T08:50:19.636Z,38.83
2023-11-12T08:52:47.845Z,42.00
2023-11-12T08:55:16.248Z,44.20
2023-11-12T08:57:44.813Z,38.17
2023-11-12T09:00:14.257Z,39.70
2023-11-12T09:02:45.065Z,44.17
2023-11-12T09:05:15.470Z,40.03
2023-11-12T09:07:43.708Z,33.53
2023-11-12T09:10:12.560Z,41.93
2023-11-12T09:12:40.764Z,37.43
2023-11-12T09:15:10.969Z,38.40
2023-11-12T09:17:39.553Z,40.93
2023-11-12T09:20:14.627Z,35.60
2023-11-12T09:22:44.428Z,33.77
2023-11-12T09:25:13.032Z,35.67
2023-11-12T09:27:43.107Z,33.80
2023-11-12T09:30:12.202Z,37.27
2023-11-12T09:32:40.709Z,35.57
2023-11-12T09:35:10.158Z,34.57
2023-11-12T09:37:38.516Z,33.17
2023-11-12T09:40:12.148Z,31.50
2023-11-12T09:42:42.752Z,29.33
2023-11-12T09:45:12.201Z,27.50
2023-11-12T09:47:49.825Z,31.13
2023-11-12T09:50:18.742Z,29.10
2023-11-12T09:52:48.529Z,22.20
2023-11-12T09:55:19.096Z,23.17
2023-11-12T09:57:48.196Z,23.10
2023-11-12T10:00:18.056Z,20.87
2023-11-12T10:02:47.067Z,20.00
2023-11-12T10:05:16.291Z,18.77
2023-11-12T10:07:45.768Z,22.87
2023-11-12T10:10:25.710Z,25.10
2023-11-12T10:12:54.643Z,16.43
2023-11-12T10:15:27.167Z,15.27
2023-11-12T10:17:59.697Z,17.83
2023-11-12T10:20:32.070Z,13.07
2023-11-12T10:23:02.838Z,16.13
2023-11-12T10:25:44.069Z,16.03
2023-11-12T10:28:13.925Z,14.00
2023-11-12T10:30:42.713Z,12.63
2023-11-12T10:33:18.853Z,16.13
2023-11-12T10:35:48.023Z,11.30
2023-11-12T10:38:18.703Z,11.93
2023-11-12T10:41:03.408Z,12.53
2023-11-12T10:43:32.625Z,13.43
2023-11-12T10:46:01.799Z,12.40
2023-11-12T10:48:34.677Z,12.50
2023-11-12T10:51:04.539Z,11.67
2023-11-12T10:53:34.478Z,13.00
2023-11-12T10:56:05.605Z,11.90
2023-11-12T10:58:35.043Z,12.63
2023-11-12T11:01:04.826Z,13.97
2023-11-12T11:03:34.858Z,14.20
2023-11-12T11:06:06.329Z,10.00
2023-11-12T11:08:35.642Z,12.87
2023-11-12T11:11:11.440Z,13.87
2023-11-12T11:13:40.615Z,11.40
2023-11-12T11:16:10.472Z,14.27
2023-11-12T11:18:51.407Z,10.90
2023-11-12T11:21:20.916Z,9.73
2023-11-12T11:23:53.255Z,12.73
2023-11-12T11:26:40.695Z,7.87
2023-11-12T11:29:14.826Z,9.73
2023-11-12T11:31:59.285Z,14.30
2023-11-12T11:34:40.839Z,11.63
2023-11-12T11:37:10.700Z,14.93
2023-11-12T11:39:39.352Z,12.77
2023-11-12T11:42:16.719Z,10.67
2023-11-12T11:44:50.748Z,13.33
2023-11-12T11:47:24.683Z,10.47
2023-11-12T11:50:14.209Z,8.43
2023-11-12T11:52:42.685Z,8.67
2023-11-12T11:55:21.337Z,6.33
2023-11-12T11:57:52.366Z,6.07
2023-11-12T12:00:20.851Z,8.73
2023-11-12T12:02:50.232Z,7.40
2023-11-12T12:05:27.877Z,7.80
2023-11-12T12:08:01.851Z,12.97
2023-11-12T12:10:31.183Z,8.13
2023-11-12T12:13:00.844Z,5.67
2023-11-12T12:15:29.094Z,7.30
2023-11-12T12:17:57.489Z,5.73
2023-11-12T12:20:26.714Z,7.80
2023-11-12T12:22:55.986Z,6.90
2023-11-12T12:25:24.127Z,7.97
2023-11-12T12:27:55.362Z,5.00
2023-11-12T12:30:25.134Z,11.20
2023-11-12T12:32:55.507Z,6.30
2023-11-12T12:35:24.087Z,5.03
2023-11-12T12:37:52.271Z,9.63
2023-11-12T12:40:29.998Z,9.33
2023-11-12T12:42:59.908Z,7.77
2023-11-12T12:45:29.528Z,4.00
2023-11-12T12:47:58.826Z,7.30
2023-11-12T12:50:30.713Z,6.07
2023-11-12T12:53:14.831Z,4.87
2023-11-12T12:55:44.468Z,5.37
2023-11-12T12:58:13.065Z,10.10
2023-11-12T13:00:44.268Z,7.83
2023-11-12T13:03:24.861Z,6.63
2023-11-12T13:05:53.262Z,6.63
2023-11-12T13:08:21.671Z,9.53
2023-11-12T13:10:50.521Z,6.00
2023-11-12T13:13:18.825Z,9.57
2023-11-12T13:15:48.848Z,5.77
2023-11-12T13:18:19.020Z,6.60
2023-11-12T13:20:49.128Z,7.57
2023-11-12T13:23:19.017Z,4.93
2023-11-12T13:25:50.749Z,6.37
2023-11-12T13:28:19.200Z,8.87
2023-11-12T13:30:49.326Z,6.63
2023-11-12T13:33:17.501Z,9.20
2023-11-12T13:35:46.419Z,13.33
2023-11-12T13:38:14.689Z,10.50
2023-11-12T13:40:42.855Z,5.87
2023-11-12T13:43:12.971Z,4.50
2023-11-12T13:45:41.415Z,7.10
2023-11-12T13:48:11.153Z,7.73
2023-11-12T13:50:40.778Z,6.73
2023-11-12T13:53:10.977Z,6.17
2023-11-12T13:55:42.705Z,3.60
2023-11-12T13:58:14.415Z,5.80
2023-11-12T14:00:43.245Z,6.23
2023-11-12T14:03:13.252Z,4.87
2023-11-12T14:05:41.560Z,5.87
2023-11-12T14:08:13.026Z,6.23
2023-11-12T14:10:42.116Z,4.77
2023-11-12T14:13:10.848Z,6.83
2023-11-12T14:15:40.251Z,5.63
2023-11-12T14:18:08.854Z,4.87
2023-11-12T14:20:38.724Z,4.93
2023-11-12T14:23:07.733Z,4.13
2023-11-12T14:25:35.939Z,5.20
2023-11-12T14:28:04.880Z,10.67
2023-11-12T14:30:38.141Z,8.20
2023-11-12T14:33:07.586Z,8.87
2023-11-12T14:35:35.977Z,7.73
2023-11-12T14:38:05.983Z,5.53
2023-11-12T14:40:34.173Z,4.87
2023-11-12T14:43:08.388Z,9.60
2023-11-12T14:45:38.442Z,6.03
2023-11-12T14:48:08.529Z,12.13
2023-11-12T14:50:37.981Z,22.10
2023-11-12T14:53:08.824Z,18.40
2023-11-12T14:55:38.073Z,25.70
2023-11-12T14:58:06.980Z,9.00
2023-11-12T15:00:36.460Z,9.10
2023-11-12T15:03:07.447Z,7.87
2023-11-12T15:05:36.216Z,16.80
2023-11-12T15:08:04.731Z,13.63
2023-11-12T15:10:34.612Z,10.80
2023-11-12T15:13:03.243Z,7.47
2023-11-12T15:15:31.474Z,7.17
2023-11-12T15:17:59.804Z,8.00
2023-11-12T15:20:28.376Z,5.30
2023-11-12T15:22:56.618Z,7.37
2023-11-12T15:25:25.882Z,8.43
2023-11-12T15:27:55.636Z,10.00
2023-11-12T15:30:25.815Z,7.63
2023-11-12T15:32:54.699Z,7.17
2023-11-12T15:35:23.019Z,9.40
2023-11-12T15:37:51.147Z,10.83
2023-11-12T15:40:24.342Z,10.80
2023-11-12T15:42:54.975Z,4.73
2023-11-12T15:45:25.783Z,10.40
2023-11-12T15:47:54.577Z,8.50
2023-11-12T15:50:26.868Z,7.80
2023-11-12T15:52:55.221Z,7.77
2023-11-12T15:55:23.688Z,12.00
2023-11-12T15:57:51.936Z,4.67
2023-11-12T16:00:20.504Z,8.80
2023-11-12T16:02:54.861Z,5.33
2023-11-12T16:05:26.698Z,7.20
2023-11-12T16:07:56.743Z,5.10
2023-11-12T16:10:25.132Z,4.60
2023-11-12T16:12:53.342Z,8.03
2023-11-12T16:15:22.323Z,7.83
2023-11-12T16:17:52.893Z,11.60
2023-11-12T16:20:21.473Z,8.53
2023-11-12T16:22:49.835Z,6.83
2023-11-12T16:25:18.454Z,12.07
2023-11-12T16:27:47.023Z,9.93
2023-11-12T16:30:15.309Z,17.57
2023-11-12T16:32:43.708Z,16.47
2023-11-12T16:35:14.770Z,14.03
2023-11-12T16:37:48.841Z,13.33
2023-11-12T16:40:19.215Z,12.63
2023-11-12T16:42:49.989Z,11.40
2023-11-12T16:45:19.180Z,13.73
2023-11-12T16:47:48.716Z,12.27
2023-11-12T16:50:18.965Z,12.27
2023-11-12T16:52:47.476Z,16.70
2023-11-12T16:55:17.926Z,11.27
2023-11-12T16:57:47.549Z,26.10
2023-11-12T17:00:16.463Z,28.23
2023-11-12T17:02:45.376Z,22.03
2023-11-12T17:05:14.258Z,21.83
2023-11-12T17:07:43.880Z,36.90
2023-11-12T17:10:14.984Z,15.73
2023-11-12T17:12:43.264Z,13.23
2023-11-12T17:15:11.909Z,16.27
2023-11-12T17:17:42.252Z,12.23
2023-11-12T17:20:14.065Z,10.00
2023-11-12T17:22:43.988Z,9.10
2023-11-12T17:25:13.307Z,10.53
2023-11-12T17:27:42.792Z,12.73
2023-11-12T17:30:13.014Z,9.87
2023-11-12T17:32:41.400Z,9.63
2023-11-12T17:35:11.483Z,9.47
2023-11-12T17:37:39.654Z,9.33
2023-11-12T17:40:12.041Z,10.73
2023-11-12T17:42:40.741Z,10.93
2023-11-12T17:45:12.087Z,8.30
2023-11-12T17:47:41.666Z,6.13
2023-11-12T17:50:11.436Z,10.13
2023-11-12T17:52:39.651Z,6.40
2023-11-12T17:55:12.019Z,8.57
2023-11-12T17:57:40.448Z,5.60
2023-11-12T18:00:11.660Z,9.57
2023-11-12T18:02:40.336Z,9.43
2023-11-12T18:05:08.983Z,10.67
2023-11-12T18:07:37.299Z,5.93
2023-11-12T18:10:06.230Z,6.63
2023-11-12T18:12:35.898Z,6.83
2023-11-12T18:15:04.082Z,4.53
2023-11-12T18:17:32.572Z,5.10
2023-11-12T18:20:00.915Z,9.23
2023-11-12T18:22:29.119Z,6.63
2023-11-12T18:24:57.265Z,8.30
2023-11-12T18:27:27.026Z,6.73
2023-11-12T18:29:56.610Z,6.63
2023-11-12T18:32:24.741Z,5.73
2023-11-12T18:34:52.884Z,5.40
2023-11-12T18:37:21.326Z,7.43
2023-11-12T18:39:49.784Z,9.17
2023-11-12T18:42:17.998Z,9.03
2023-11-12T18:44:47.642Z,7.87
2023-11-12T18:47:17.235Z,7.37
2023-11-12T18:49:48.131Z,7.63
2023-11-12T18:52:16.339Z,11.30
2023-11-12T18:54:45.090Z,6.83
2023-11-12T18:57:13.296Z,6.20
2023-11-12T18:59:42.277Z,9.90
2023-11-12T19:02:10.435Z,6.67
2023-11-12T19:04:42.644Z,10.10
2023-11-12T19:07:16.036Z,8.93
2023-11-12T19:09:45.862Z,10.20
2023-11-12T19:12:14.383Z,8.47
2023-11-12T19:14:42.534Z,11.27
2023-11-12T19:17:10.788Z,9.27
2023-11-12T19:19:41.120Z,8.30
2023-11-12T19:22:09.386Z,8.40
2023-11-12T19:24:38.860Z,9.93
2023-11-12T19:27:07.816Z,13.70
2023-11-12T19:29:36.141Z,9.67
2023-11-12T19:32:05.342Z,11.90
2023-11-12T19:34:35.754Z,8.20
2023-11-12T19:37:05.543Z,9.10
2023-11-12T19:39:34.161Z,11.13
2023-11-12T19:42:02.393Z,6.70
2023-11-12T19:44:30.543Z,9.20
2023-11-12T19:46:59.350Z,7.90
2023-11-12T19:49:27.512Z,6.70
2023-11-12T19:51:55.773Z,7.87
2023-11-12T19:55:01.057Z,7.77
2023-11-12T19:57:30.751Z,6.10
2023-11-12T19:59:58.993Z,6.83
2023-11-12T20:02:27.840Z,8.83
2023-11-12T20:04:56.313Z,5.00
2023-11-12T20:07:24.504Z,6.50
2023-11-12T20:09:52.700Z,7.73
2023-11-12T20:12:20.873Z,7.20
2023-11-12T20:14:51.051Z,5.43
2023-11-12T20:17:19.281Z,5.13
2023-11-12T20:19:47.437Z,6.20
2023-11-12T20:22:18.708Z,5.40
2023-11-12T20:24:51.236Z,4.90
2023-11-12T20:27:20.995Z,7.10
2023-11-12T20:29:51.401Z,9.57
2023-11-12T20:32:19.626Z,4.93
2023-11-12T20:34:47.874Z,6.53
2023-11-12T20:37:17.117Z,7.00
2023-11-12T20:39:45.539Z,8.63
2023-11-12T20:42:14.888Z,6.50
2023-11-12T20:44:43.511Z,6.90
2023-11-12T20:47:13.714Z,7.47
2023-11-12T20:49:42.074Z,6.70
2023-11-12T20:52:11.047Z,7.27
2023-11-12T20:54:40.068Z,5.97
2023-11-12T20:57:08.673Z,10.63
2023-11-12T20:59:37.716Z,8.47
2023-11-12T21:02:14.517Z,9.47
2023-11-12T21:04:51.901Z,9.70
2023-11-12T21:07:21.301Z,8.40
2023-11-12T21:09:51.221Z,6.97
2023-11-12T21:12:22.344Z,5.90
2023-11-12T21:14:50.858Z,8.77
2023-11-12T21:17:19.248Z,7.77
2023-11-12T21:19:47.611Z,5.53
2023-11-12T21:22:17.369Z,5.90
2023-11-12T21:24:46.604Z,6.23
2023-11-12T21:27:15.611Z,8.17
2023-11-12T21:29:43.726Z,7.30
2023-11-12T21:32:13.744Z,5.50
2023-11-12T21:34:42.156Z,6.40
2023-11-12T21:37:10.762Z,5.83
2023-11-12T21:39:40.328Z,5.83
2023-11-12T21:42:08.659Z,8.43
2023-11-12T21:44:36.975Z,7.13
2023-11-12T21:47:05.737Z,5.67
2023-11-12T21:49:33.960Z,8.13
2023-11-12T21:52:03.333Z,6.30
2023-11-12T21:54:31.785Z,6.43
2023-11-12T21:57:01.829Z,9.17
2023-11-12T21:59:32.223Z,6.50
2023-11-12T22:02:03.001Z,6.07
2023-11-12T22:04:31.357Z,6.37
2023-11-12T22:06:59.963Z,8.27
2023-11-12T22:09:28.356Z,9.37
2023-11-12T22:11:56.646Z,6.53
2023-11-12T22:14:26.204Z,6.20
2023-11-12T22:16:54.413Z,8.83
2023-11-12T22:19:22.643Z,7.03
2023-11-12T22:21:50.867Z,7.90
2023-11-12T22:24:19.493Z,7.37
2023-11-12T22:26:47.651Z,9.83
2023-11-12T22:29:15.854Z,8.90
2023-11-12T22:31:46.601Z,6.47
2023-11-12T22:34:16.046Z,6.27
2023-11-12T22:36:44.555Z,8.27
2023-11-12T22:39:13.046Z,9.47
2023-11-12T22:41:42.056Z,7.33
2023-11-12T22:44:14.698Z,8.73
2023-11-12T22:46:42.914Z,16.93
2023-11-12T22:49:12.521Z,8.77
2023-11-12T22:51:40.804Z,11.03
2023-11-12T22:54:10.686Z,13.27
2023-11-12T22:56:39.179Z,16.00
2023-11-12T22:59:07.507Z,13.13
2023-11-12T23:01:35.824Z,15.53
2023-11-12T23:04:06.462Z,13.00
2023-11-12T23:06:36.025Z,13.40
2023-11-12T23:09:08.381Z,13.70
2023-11-12T23:11:36.617Z,12.03
2023-11-12T23:14:05.288Z,13.10
2023-11-12T23:16:34.222Z,13.10
2023-11-12T23:19:02.576Z,12.03
2023-11-12T23:21:30.835Z,11.67
2023-11-12T23:24:00.316Z,15.17
2023-11-12T23:26:28.710Z,12.90
2023-11-12T23:28:58.016Z,12.67
2023-11-12T23:31:26.818Z,13.10
2023-11-12T23:33:55.084Z,16.73
2023-11-12T23:36:23.374Z,13.40
2023-11-12T23:38:51.693Z,16.57
2023-11-12T23:41:21.820Z,15.27
2023-11-12T23:43:50.626Z,14.67
2023-11-12T23:46:18.501Z,16.17
2023-11-12T23:48:46.805Z,16.00
2023-11-12T23:51:15.821Z,15.83
2023-11-12T23:53:45.380Z,16.10
2023-11-12T23:56:17.178Z,15.87
2023-11-12T23:58:46.854Z,15.87
